createdAt,value
2022-11-24T00:00:00.750Z,1.00
2022-11-24T00:02:31.242Z,0.70
2022-11-24T00:05:01.103Z,1.27
2022-11-24T00:07:30.921Z,0.80
2022-11-24T00:10:00.971Z,0.90
2022-11-24T00:12:30.681Z,0.90
2022-11-24T00:15:00.427Z,0.90
2022-11-24T00:17:30.569Z,1.63
2022-11-24T00:20:00.299Z,1.50
2022-11-24T00:22:30.194Z,0.80
2022-11-24T00:24:59.858Z,1.00
2022-11-24T00:27:29.549Z,1.02
2022-11-24T00:30:00.651Z,1.55
2022-11-24T00:32:31.960Z,0.90
2022-11-24T00:35:02.015Z,1.23
2022-11-24T00:37:32.175Z,1.02
2022-11-24T00:40:01.848Z,1.10
2022-11-24T00:42:31.537Z,1.10
2022-11-24T00:45:12.998Z,0.98
2022-11-24T00:47:43.954Z,1.00
2022-11-24T00:50:13.685Z,0.93
2022-11-24T00:52:43.365Z,0.90
2022-11-24T00:55:13.164Z,0.93
2022-11-24T00:57:42.904Z,0.93
2022-11-24T01:00:12.905Z,1.05
2022-11-24T01:02:42.654Z,1.30
2022-11-24T01:05:12.936Z,0.82
2022-11-24T01:07:42.659Z,1.02
2022-11-24T01:10:13.557Z,0.95
2022-11-24T01:12:44.167Z,1.17
2022-11-24T01:15:14.078Z,1.10
2022-11-24T01:17:43.774Z,1.15
2022-11-24T01:20:14.737Z,1.02
2022-11-24T01:22:44.465Z,0.98
2022-11-24T01:25:14.223Z,1.23
2022-11-24T01:27:43.937Z,0.98
2022-11-24T01:30:13.780Z,1.20
2022-11-24T01:32:43.464Z,1.10
2022-11-24T01:35:14.124Z,1.25
2022-11-24T01:37:44.274Z,1.10
2022-11-24T01:40:14.425Z,1.10
2022-11-24T01:42:54.879Z,1.10
2022-11-24T01:45:37.745Z,0.90
2022-11-24T01:48:12.178Z,1.05
2022-11-24T01:50:43.214Z,1.00
2022-11-24T01:53:15.539Z,1.02
2022-11-24T01:55:45.691Z,0.90
2022-11-24T01:58:19.796Z,1.20
2022-11-24T02:00:49.975Z,1.15
2022-11-24T02:03:27.342Z,0.93
2022-11-24T02:06:21.699Z,1.30
2022-11-24T02:09:14.684Z,1.05
2022-11-24T02:11:46.522Z,1.10
2022-11-24T02:14:19.515Z,1.23
2022-11-24T02:16:54.327Z,1.00
2022-11-24T02:19:42.011Z,1.00
2022-11-24T02:22:31.166Z,1.00
2022-11-24T02:25:10.333Z,1.10
2022-11-24T02:27:40.481Z,0.80
2022-11-24T02:30:10.949Z,1.00
2022-11-24T02:32:44.106Z,1.00
2022-11-24T02:35:15.913Z,1.20
2022-11-24T02:37:46.016Z,1.00
2022-11-24T02:40:26.109Z,1.02
2022-11-24T02:43:01.400Z,1.30
2022-11-24T02:45:32.954Z,1.20
2022-11-24T02:48:03.675Z,1.13
2022-11-24T02:50:33.524Z,1.48
2022-11-24T02:53:03.431Z,0.90
2022-11-24T02:55:33.156Z,1.63
2022-11-24T02:58:02.867Z,0.80
2022-11-24T03:00:32.587Z,1.10
2022-11-24T03:03:02.516Z,1.52
2022-11-24T03:05:32.485Z,1.08
2022-11-24T03:08:02.259Z,1.25
2022-11-24T03:10:32.120Z,0.98
2022-11-24T03:13:01.807Z,0.90
2022-11-24T03:15:31.651Z,1.30
2022-11-24T03:18:01.458Z,1.13
2022-11-24T03:20:32.021Z,1.10
2022-11-24T03:23:02.175Z,1.00
2022-11-24T03:25:31.964Z,1.08
2022-11-24T03:28:01.847Z,1.48
2022-11-24T03:30:31.820Z,1.23
2022-11-24T03:33:01.511Z,1.10
2022-11-24T03:35:31.293Z,1.38
2022-11-24T03:38:00.972Z,1.13
2022-11-24T03:40:30.657Z,1.63
2022-11-24T03:43:00.641Z,1.02
2022-11-24T03:45:45.423Z,1.10
2022-11-24T03:48:18.024Z,1.27
2022-11-24T03:50:59.585Z,0.90
2022-11-24T03:53:32.055Z,1.10
2022-11-24T03:56:03.198Z,1.27
2022-11-24T03:58:33.214Z,1.30
2022-11-24T04:01:04.065Z,1.23
2022-11-24T04:03:34.248Z,1.10
2022-11-24T04:06:03.917Z,1.02
2022-11-24T04:08:33.925Z,1.33
2022-11-24T04:11:03.598Z,1.17
2022-11-24T04:13:33.649Z,1.20
2022-11-24T04:16:07.408Z,1.10
2022-11-24T04:18:37.634Z,1.15
2022-11-24T04:21:07.427Z,1.17
2022-11-24T04:23:37.106Z,1.40
2022-11-24T04:26:06.963Z,1.40
2022-11-24T04:28:36.633Z,1.10
2022-11-24T04:31:07.590Z,1.15
2022-11-24T04:33:37.698Z,1.42
2022-11-24T04:36:08.011Z,1.08
2022-11-24T04:39:25.369Z,1.30
2022-11-24T04:41:27.656Z,1.23
2022-11-24T04:43:57.320Z,1.30
2022-11-24T04:46:27.970Z,1.08
2022-11-24T04:48:57.974Z,1.40
2022-11-24T04:51:27.761Z,1.20
2022-11-24T04:53:57.419Z,1.05
2022-11-24T04:56:27.094Z,1.60
2022-11-24T04:58:56.781Z,1.40
2022-11-24T05:01:26.771Z,1.50
2022-11-24T05:03:57.227Z,1.58
2022-11-24T05:06:27.584Z,1.05
2022-11-24T05:08:57.362Z,1.20
2022-11-24T05:11:27.372Z,1.30
2022-11-24T05:13:57.036Z,1.10
2022-11-24T05:16:27.030Z,1.05
2022-11-24T05:18:56.802Z,1.40
2022-11-24T05:21:26.727Z,1.40
2022-11-24T05:23:57.345Z,1.25
2022-11-24T05:26:27.721Z,1.38
2022-11-24T05:28:57.529Z,1.50
2022-11-24T05:31:27.271Z,1.30
2022-11-24T05:33:56.974Z,1.30
2022-11-24T05:36:45.391Z,1.10
2022-11-24T05:39:15.470Z,1.30
2022-11-24T05:41:45.155Z,1.30
2022-11-24T05:44:14.867Z,1.30
2022-11-24T05:46:44.578Z,1.60
2022-11-24T05:49:14.660Z,1.50
2022-11-24T05:51:44.361Z,1.10
2022-11-24T05:54:14.033Z,1.20
2022-11-24T05:56:43.718Z,1.30
2022-11-24T05:59:13.524Z,1.13
2022-11-24T06:01:43.597Z,1.23
2022-11-24T06:04:13.394Z,1.17
2022-11-24T06:06:43.241Z,1.20
2022-11-24T06:09:12.904Z,1.50
2022-11-24T06:11:42.603Z,1.02
2022-11-24T06:14:12.336Z,1.30
2022-11-24T06:16:42.326Z,1.52
2022-11-24T06:19:12.963Z,1.38
2022-11-24T06:21:42.855Z,1.40
2022-11-24T06:24:12.694Z,1.25
2022-11-24T06:26:42.883Z,1.23
2022-11-24T06:29:12.649Z,1.50
2022-11-24T06:31:42.400Z,1.25
2022-11-24T06:34:13.841Z,1.08
2022-11-24T06:36:43.917Z,1.15
2022-11-24T06:39:13.624Z,1.25
2022-11-24T06:41:43.660Z,1.35
2022-11-24T06:44:13.368Z,1.05
2022-11-24T06:46:43.688Z,1.17
2022-11-24T06:49:13.352Z,1.27
2022-11-24T06:51:43.773Z,1.40
2022-11-24T06:54:17.084Z,1.38
2022-11-24T06:56:47.369Z,1.23
2022-11-24T06:59:21.791Z,1.50
2022-11-24T07:01:52.047Z,1.38
2022-11-24T07:04:21.828Z,1.13
2022-11-24T07:06:51.527Z,1.20
2022-11-24T07:09:21.233Z,1.02
2022-11-24T07:11:51.137Z,1.23
2022-11-24T07:14:21.732Z,1.27
2022-11-24T07:16:51.518Z,1.40
2022-11-24T07:19:24.878Z,1.33
2022-11-24T07:21:55.313Z,1.42
2022-11-24T07:24:25.917Z,1.20
2022-11-24T07:26:56.188Z,1.40
2022-11-24T07:29:25.885Z,1.52
2022-11-24T07:31:56.863Z,1.63
2022-11-24T07:34:29.652Z,1.10
2022-11-24T07:39:28.469Z,1.30
2022-11-24T07:41:59.637Z,1.20
2022-11-24T07:44:29.482Z,1.40
2022-11-24T07:46:59.394Z,1.60
2022-11-24T07:51:58.474Z,1.50
2022-11-24T07:54:28.474Z,1.50
2022-11-24T07:56:58.424Z,1.60
2022-11-24T07:59:28.089Z,1.40
2022-11-24T08:01:57.791Z,1.50
2022-11-24T08:04:27.508Z,2.25
2022-11-24T08:06:57.407Z,1.40
2022-11-24T08:09:27.073Z,1.67
2022-11-24T08:11:57.573Z,1.60
2022-11-24T08:14:27.248Z,1.60
2022-11-24T08:19:26.519Z,1.30
2022-11-24T08:21:57.371Z,1.50
2022-11-24T08:24:29.684Z,1.45
2022-11-24T08:26:59.747Z,1.45
2022-11-24T08:29:32.922Z,1.35
2022-11-24T08:32:02.854Z,1.60
2022-11-24T08:34:32.875Z,1.55
2022-11-24T08:37:05.473Z,1.88
2022-11-24T08:39:35.695Z,2.00
2022-11-24T08:42:05.507Z,1.80
2022-11-24T08:44:35.856Z,1.63
2022-11-24T08:47:06.283Z,1.95
2022-11-24T08:49:36.016Z,1.58
2022-11-24T08:52:06.083Z,1.58
2022-11-24T08:54:36.033Z,1.67
2022-11-24T08:57:05.993Z,1.67
2022-11-24T08:59:35.740Z,1.60
2022-11-24T09:02:05.504Z,1.40
2022-11-24T09:04:35.398Z,1.38
2022-11-24T09:07:05.429Z,1.63
2022-11-24T09:09:35.095Z,1.80
2022-11-24T09:12:06.578Z,1.75
2022-11-24T09:14:39.163Z,1.73
2022-11-24T09:17:08.885Z,1.80
2022-11-24T09:19:38.801Z,1.98
2022-11-24T09:22:08.842Z,2.80
2022-11-24T09:24:41.159Z,3.03
2022-11-24T09:27:11.817Z,2.60
2022-11-24T09:29:41.542Z,3.80
2022-11-24T09:32:11.544Z,2.30
2022-11-24T09:34:41.220Z,2.15
2022-11-24T09:37:10.901Z,1.77
2022-11-24T09:39:40.599Z,2.08
2022-11-24T09:42:16.095Z,2.15
2022-11-24T09:44:51.756Z,1.60
2022-11-24T09:50:21.221Z,2.00
2022-11-24T09:53:04.772Z,1.40
2022-11-24T09:55:57.607Z,1.83
2022-11-24T09:58:39.021Z,2.10
2022-11-24T10:01:21.745Z,1.73
2022-11-24T10:03:54.034Z,1.73
2022-11-24T10:06:25.583Z,1.80
2022-11-24T10:09:11.297Z,2.00
2022-11-24T10:11:44.522Z,2.45
2022-11-24T10:14:38.237Z,2.13
2022-11-24T10:17:13.636Z,1.83
2022-11-24T10:20:29.568Z,2.53
2022-11-24T10:23:20.727Z,2.75
2022-11-24T10:26:01.476Z,1.73
2022-11-24T10:28:46.168Z,1.80
2022-11-24T10:31:21.929Z,1.90
2022-11-24T10:33:52.441Z,1.50
2022-11-24T10:36:34.537Z,1.52
2022-11-24T10:39:13.870Z,1.70
2022-11-24T10:41:48.441Z,1.63
2022-11-24T10:44:18.412Z,2.75
2022-11-24T10:46:48.456Z,6.82
2022-11-24T10:49:27.256Z,1.85
2022-11-24T10:52:08.916Z,1.70
2022-11-24T10:55:01.363Z,2.30
2022-11-24T10:57:37.966Z,1.80
2022-11-24T11:00:20.401Z,1.60
2022-11-24T11:02:51.993Z,1.50
2022-11-24T11:05:34.607Z,1.52
2022-11-24T11:08:16.562Z,1.88
2022-11-24T11:10:47.897Z,1.70
2022-11-24T11:13:26.451Z,1.70
2022-11-24T11:15:57.970Z,1.48
2022-11-24T11:18:33.919Z,1.70
2022-11-24T11:21:05.184Z,1.80
2022-11-24T11:23:37.647Z,1.85
2022-11-24T11:26:27.022Z,1.50
2022-11-24T11:34:58.300Z,1.88
2022-11-24T11:37:34.400Z,1.35
2022-11-24T11:40:04.980Z,1.27
2022-11-24T11:45:31.098Z,1.70
2022-11-24T11:48:05.349Z,1.30
2022-11-24T11:56:26.699Z,1.60
2022-11-24T11:59:12.501Z,1.40
2022-11-24T12:02:12.001Z,1.48
2022-11-24T12:04:55.101Z,1.63
2022-11-24T12:07:56.199Z,1.50
2022-11-24T12:10:47.955Z,1.42
2022-11-24T12:13:23.493Z,1.55
2022-11-24T12:15:57.521Z,1.63
2022-11-24T12:19:00.490Z,1.50
2022-11-24T12:21:53.572Z,1.52
2022-11-24T12:24:35.696Z,1.50
2022-11-24T12:27:27.035Z,1.70
2022-11-24T12:30:12.497Z,1.40
2022-11-24T12:33:12.800Z,1.40
2022-11-24T12:35:55.531Z,1.50
2022-11-24T12:39:07.650Z,1.30
2022-11-24T12:41:46.356Z,3.17
2022-11-24T12:44:37.377Z,1.20
2022-11-24T12:47:13.269Z,0.88
2022-11-24T12:50:05.051Z,0.90
2022-11-24T12:52:40.983Z,1.10
2022-11-24T12:55:19.807Z,1.00
2022-11-24T12:58:11.372Z,0.80
2022-11-24T13:01:03.532Z,1.13
2022-11-24T13:03:51.983Z,0.80
2022-11-24T13:06:58.838Z,1.23
2022-11-24T13:09:28.807Z,0.90
2022-11-24T13:12:14.968Z,0.90
2022-11-24T13:14:47.591Z,1.20
2022-11-24T13:17:50.242Z,1.00
2022-11-24T13:20:42.068Z,1.00
2022-11-24T13:23:26.471Z,1.08
2022-11-24T13:26:16.133Z,1.00
2022-11-24T13:29:18.310Z,0.80
2022-11-24T13:31:55.024Z,0.90
2022-11-24T13:34:46.678Z,2.45
2022-11-24T13:37:35.259Z,1.10
2022-11-24T13:40:32.034Z,0.80
2022-11-24T13:43:03.832Z,0.93
2022-11-24T13:45:43.580Z,0.95
2022-11-24T13:48:22.944Z,0.75
2022-11-24T13:50:56.152Z,0.70
2022-11-24T13:53:49.017Z,0.95
2022-11-24T13:56:19.973Z,0.90
2022-11-24T13:59:02.312Z,1.00
2022-11-24T14:01:34.979Z,1.60
2022-11-24T14:04:31.084Z,0.80
2022-11-24T14:07:09.457Z,0.70
2022-11-24T14:09:54.459Z,0.93
2022-11-24T14:12:27.185Z,0.68
2022-11-24T14:15:25.381Z,0.80
2022-11-24T14:17:55.530Z,0.60
2022-11-24T14:20:27.735Z,0.85
2022-11-24T14:22:57.974Z,0.85
2022-11-24T14:25:33.018Z,0.52
2022-11-24T14:28:03.327Z,0.65
2022-11-24T14:30:33.114Z,0.73
2022-11-24T14:33:05.768Z,1.27
2022-11-24T14:35:43.643Z,0.55
2022-11-24T14:38:15.035Z,0.63
2022-11-24T14:40:54.509Z,0.77
2022-11-24T14:43:35.625Z,0.80
2022-11-24T14:48:55.166Z,0.47
2022-11-24T14:51:29.092Z,0.70
2022-11-24T14:54:07.880Z,0.63
2022-11-24T14:56:40.353Z,0.60
2022-11-24T14:59:26.520Z,0.68
2022-11-24T15:01:58.132Z,0.80
2022-11-24T15:05:00.737Z,0.80
2022-11-24T15:07:30.419Z,1.05
2022-11-24T15:10:02.960Z,0.85
2022-11-24T15:12:35.954Z,0.80
2022-11-24T15:15:16.403Z,0.47
2022-11-24T15:17:51.453Z,0.50
2022-11-24T15:20:45.837Z,0.57
2022-11-24T15:23:31.631Z,0.70
2022-11-24T15:26:04.924Z,0.60
2022-11-24T15:28:35.285Z,0.68
2022-11-24T15:31:07.865Z,0.70
2022-11-24T15:33:38.973Z,0.50
2022-11-24T15:36:09.301Z,0.90
2022-11-24T15:38:39.185Z,1.35
2022-11-24T15:41:22.129Z,0.40
2022-11-24T15:43:59.854Z,0.70
2022-11-24T15:46:31.322Z,0.52
2022-11-24T15:49:01.453Z,0.60
2022-11-24T15:51:31.437Z,0.70
2022-11-24T15:54:01.655Z,0.70
2022-11-24T15:56:36.378Z,0.60
2022-11-24T15:59:06.700Z,0.70
2022-11-24T16:01:36.583Z,0.50
2022-11-24T16:04:06.887Z,0.50
2022-11-24T16:06:38.015Z,0.60
2022-11-24T16:09:09.703Z,0.80
2022-11-24T16:11:39.720Z,0.60
2022-11-24T16:14:09.492Z,0.90
2022-11-24T16:16:39.247Z,0.60
2022-11-24T16:19:11.197Z,0.60
2022-11-24T16:21:41.640Z,0.80
2022-11-24T16:24:11.750Z,0.55
2022-11-24T16:26:42.202Z,0.40
2022-11-24T16:29:12.500Z,0.47
2022-11-24T16:31:44.503Z,0.45
2022-11-24T16:34:15.703Z,0.60
2022-11-24T16:36:45.412Z,0.60
2022-11-24T16:39:15.098Z,0.45
2022-11-24T16:41:44.817Z,0.60
2022-11-24T16:44:14.674Z,0.47
2022-11-24T16:46:45.790Z,0.90
2022-11-24T16:49:15.484Z,0.73
2022-11-24T16:51:46.177Z,0.60
2022-11-24T16:54:16.213Z,0.50
2022-11-24T16:56:45.922Z,0.60
2022-11-24T16:59:15.624Z,0.40
2022-11-24T17:01:47.621Z,0.50
2022-11-24T17:04:18.095Z,0.85
2022-11-24T17:06:48.186Z,0.70
2022-11-24T17:09:18.787Z,0.40
2022-11-24T17:11:48.663Z,0.40
2022-11-24T17:14:18.436Z,0.70
2022-11-24T17:16:48.543Z,0.52
2022-11-24T17:19:18.282Z,0.50
2022-11-24T17:21:48.001Z,0.68
2022-11-24T17:24:19.203Z,0.82
2022-11-24T17:26:52.542Z,0.60
2022-11-24T17:29:22.607Z,0.40
2022-11-24T17:31:52.346Z,0.52
2022-11-24T17:34:22.901Z,0.60
2022-11-24T17:36:52.772Z,0.30
2022-11-24T17:39:24.943Z,0.80
2022-11-24T17:41:55.172Z,0.52
2022-11-24T17:44:24.865Z,0.47
2022-11-24T17:46:54.625Z,0.60
2022-11-24T17:49:24.426Z,0.50
2022-11-24T17:51:54.102Z,0.60
2022-11-24T17:54:46.460Z,0.70
2022-11-24T17:57:13.888Z,0.32
2022-11-24T17:59:43.807Z,0.60
2022-11-24T18:02:13.689Z,0.70
2022-11-24T18:04:43.637Z,0.60
2022-11-24T18:07:13.554Z,0.50
2022-11-24T18:09:43.402Z,0.60
2022-11-24T18:12:14.057Z,0.60
2022-11-24T18:14:44.219Z,0.43
2022-11-24T18:17:14.593Z,0.47
2022-11-24T18:19:44.689Z,0.80
2022-11-24T18:22:14.794Z,1.25
2022-11-24T18:24:44.806Z,0.75
2022-11-24T18:27:14.865Z,0.57
2022-11-24T18:29:45.345Z,0.60
2022-11-24T18:32:15.513Z,0.40
2022-11-24T18:34:45.636Z,0.60
2022-11-24T18:37:17.637Z,0.63
2022-11-24T18:39:48.101Z,0.60
2022-11-24T18:42:19.220Z,0.55
2022-11-24T18:44:52.676Z,0.60
2022-11-24T18:47:25.188Z,0.50
2022-11-24T18:49:55.628Z,0.60
2022-11-24T18:52:25.770Z,0.50
2022-11-24T18:54:55.787Z,0.52
2022-11-24T18:57:25.836Z,0.50
2022-11-24T18:59:55.877Z,0.60
2022-11-24T19:02:25.943Z,0.50
2022-11-24T19:04:56.256Z,2.13
2022-11-24T19:07:26.460Z,0.50
2022-11-24T19:09:56.501Z,0.65
2022-11-24T19:12:26.574Z,0.60
2022-11-24T19:14:56.621Z,0.82
2022-11-24T19:17:26.923Z,0.57
2022-11-24T19:19:57.631Z,0.90
2022-11-24T19:22:27.937Z,0.60
2022-11-24T19:24:58.404Z,0.52
2022-11-24T19:27:28.504Z,0.57
2022-11-24T19:29:59.064Z,0.57
2022-11-24T19:32:29.957Z,0.65
2022-11-24T19:35:00.424Z,0.45
2022-11-24T19:37:31.523Z,0.60
2022-11-24T19:40:01.578Z,0.70
2022-11-24T19:42:31.689Z,0.60
2022-11-24T19:45:02.048Z,0.70
2022-11-24T19:47:32.144Z,0.68
2022-11-24T19:50:07.326Z,0.60
2022-11-24T19:52:40.935Z,0.60
2022-11-24T19:55:11.459Z,0.82
2022-11-24T19:57:41.610Z,0.88
2022-11-24T20:00:12.123Z,0.60
2022-11-24T20:02:42.665Z,0.60
2022-11-24T20:05:12.777Z,0.60
2022-11-24T20:07:42.978Z,0.70
2022-11-24T20:10:14.085Z,0.70
2022-11-24T20:12:44.370Z,0.77
2022-11-24T20:15:14.454Z,0.65
2022-11-24T20:17:44.485Z,0.80
2022-11-24T20:20:14.988Z,0.50
2022-11-24T20:22:45.568Z,0.60
2022-11-24T20:25:15.633Z,0.50
2022-11-24T20:27:46.893Z,0.50
2022-11-24T20:30:17.452Z,0.60
2022-11-24T20:32:47.568Z,1.23
2022-11-24T20:35:18.448Z,0.70
2022-11-24T20:37:51.755Z,0.52
2022-11-24T20:40:21.971Z,0.70
2022-11-24T20:42:52.148Z,0.80
2022-11-24T20:45:22.450Z,1.17
2022-11-24T20:47:52.540Z,0.75
2022-11-24T20:50:22.556Z,0.52
2022-11-24T20:52:52.588Z,0.73
2022-11-24T20:55:23.764Z,0.70
2022-11-24T20:57:54.650Z,0.65
2022-11-24T21:00:24.760Z,0.57
2022-11-24T21:02:57.769Z,0.82
2022-11-24T21:05:28.597Z,0.73
2022-11-24T21:07:58.647Z,0.63
2022-11-24T21:10:28.651Z,0.70
2022-11-24T21:12:59.409Z,0.70
2022-11-24T21:15:31.123Z,0.70
2022-11-24T21:18:01.626Z,0.68
2022-11-24T21:20:31.633Z,0.70
2022-11-24T21:23:01.653Z,0.77
2022-11-24T21:25:33.118Z,0.70
2022-11-24T21:28:03.549Z,0.63
2022-11-24T21:30:34.873Z,1.00
2022-11-24T21:33:06.680Z,0.75
2022-11-24T21:35:39.450Z,1.13
2022-11-24T21:38:10.182Z,1.00
2022-11-24T21:40:42.761Z,0.65
2022-11-24T21:45:45.756Z,0.88
2022-11-24T21:48:16.378Z,0.45
2022-11-24T21:50:46.400Z,0.50
2022-11-24T21:53:16.411Z,0.80
2022-11-24T21:55:54.925Z,0.75
2022-11-24T21:58:25.893Z,0.60
2022-11-24T22:00:57.842Z,0.80
2022-11-24T22:03:28.252Z,0.63
2022-11-24T22:06:00.003Z,0.70
2022-11-24T22:08:31.535Z,0.73
2022-11-24T22:11:17.213Z,0.70
2022-11-24T22:13:48.239Z,0.63
2022-11-24T22:16:24.016Z,0.70
2022-11-24T22:21:26.837Z,0.80
2022-11-24T22:23:57.061Z,1.25
2022-11-24T22:26:29.304Z,1.83
2022-11-24T22:29:00.108Z,1.77
2022-11-24T22:31:33.824Z,1.20
2022-11-24T22:34:04.937Z,0.95
2022-11-24T22:36:37.860Z,0.90
2022-11-24T22:39:08.445Z,1.00
2022-11-24T22:41:38.455Z,0.98
2022-11-24T22:44:08.565Z,1.48
2022-11-24T22:46:38.606Z,1.30
2022-11-24T22:49:09.638Z,1.30
2022-11-24T22:51:40.958Z,0.90
2022-11-24T22:54:15.050Z,1.10
2022-11-24T22:56:45.334Z,0.90
2022-11-24T22:59:15.964Z,1.23
2022-11-24T23:01:46.333Z,0.82
2022-11-24T23:04:16.602Z,0.80
2022-11-24T23:06:47.285Z,0.63
2022-11-24T23:09:17.675Z,3.78
2022-11-24T23:11:48.687Z,0.80
2022-11-24T23:14:19.095Z,0.90
2022-11-24T23:16:49.252Z,1.00
2022-11-24T23:19:19.410Z,0.85
2022-11-24T23:21:49.505Z,0.80
2022-11-24T23:24:19.747Z,0.68
2022-11-24T23:26:50.100Z,0.95
2022-11-24T23:29:20.158Z,0.60
2022-11-24T23:31:50.334Z,1.15
2022-11-24T23:34:20.453Z,0.88
2022-11-24T23:36:50.538Z,0.77
2022-11-24T23:39:20.569Z,0.88
2022-11-24T23:41:50.614Z,0.70
2022-11-24T23:44:20.623Z,0.82
2022-11-24T23:46:50.691Z,0.85
2022-11-24T23:49:21.109Z,0.90
2022-11-24T23:51:51.145Z,0.73
2022-11-24T23:54:21.179Z,0.80
2022-11-24T23:56:51.216Z,0.70
2022-11-24T23:59:21.413Z,0.68
